createdAt,value
2022-08-05T00:01:27.849Z,98696.50
2022-08-05T00:03:56.889Z,98689.47
2022-08-05T00:06:30.698Z,98687.38
2022-08-05T00:09:00.580Z,98688.88
2022-08-05T00:11:34.515Z,98692.06
2022-08-05T00:14:12.096Z,98685.72
2022-08-05T00:16:53.123Z,98687.22
2022-08-05T00:19:24.792Z,98683.59
2022-08-05T00:21:59.784Z,98688.09
2022-08-05T00:24:30.989Z,98683.25
2022-08-05T00:26:58.864Z,98682.63
2022-08-05T00:29:26.078Z,98679.03
2022-08-05T00:32:12.702Z,98675.44
2022-08-05T00:35:05.676Z,98673.97
2022-08-05T00:37:50.617Z,98682.03
2022-08-05T00:40:28.120Z,98677.81
2022-08-05T00:42:59.348Z,98675.09
2022-08-05T00:45:37.987Z,98674.25
2022-08-05T00:48:07.321Z,98676.59
2022-08-05T00:50:34.367Z,98672.78
2022-08-05T00:53:02.581Z,98681.28
2022-08-05T00:55:42.313Z,98667.06
2022-08-05T00:58:12.920Z,98675.53
2022-08-05T01:00:40.332Z,98667.06
2022-08-05T01:03:08.986Z,98674.09
2022-08-05T01:05:35.749Z,98665.16
2022-08-05T01:08:41.247Z,98663.06
2022-08-05T01:10:54.822Z,98661.19
2022-08-05T01:13:27.368Z,98665.63
2022-08-05T01:16:13.292Z,98664.56
2022-08-05T01:18:53.769Z,98662.25
2022-08-05T01:21:38.224Z,98654.44
2022-08-05T01:24:13.170Z,98647.63
2022-08-05T01:26:59.995Z,98654.00
2022-08-05T01:29:35.074Z,98658.69
2022-08-05T01:32:02.827Z,98655.50
2022-08-05T01:34:32.311Z,98654.22
2022-08-05T01:37:04.329Z,98657.88
2022-08-05T01:39:46.303Z,98647.88
2022-08-05T01:42:15.321Z,98647.22
2022-08-05T01:44:42.346Z,98648.06
2022-08-05T01:47:12.387Z,98649.16
2022-08-05T01:50:01.312Z,98654.47
2022-08-05T01:52:26.674Z,98647.88
2022-08-05T01:54:54.498Z,98643.44
2022-08-05T01:58:10.630Z,98650.00
2022-08-05T02:00:12.486Z,98646.63
2022-08-05T02:02:46.549Z,98649.59
2022-08-05T02:05:23.574Z,98642.78
2022-08-05T02:08:00.006Z,98650.22
2022-08-05T02:10:28.933Z,98647.25
2022-08-05T02:13:04.817Z,98646.81
2022-08-05T02:15:54.400Z,98638.97
2022-08-05T02:18:32.146Z,98640.47
2022-08-05T02:21:15.576Z,98630.09
2022-08-05T02:23:42.852Z,98634.09
2022-08-05T02:26:10.397Z,98628.78
2022-08-05T02:28:41.769Z,98630.28
2022-08-05T02:31:20.184Z,98629.44
2022-08-05T02:33:57.521Z,98620.31
2022-08-05T02:36:27.495Z,98624.31
2022-08-05T02:38:58.189Z,98628.31
2022-08-05T02:41:28.725Z,98619.84
2022-08-05T02:44:06.897Z,98617.97
2022-08-05T02:46:53.168Z,98621.53
2022-08-05T02:49:35.833Z,98618.56
2022-08-05T02:52:04.899Z,98615.59
2022-08-05T02:54:35.025Z,98617.28
2022-08-05T02:57:09.845Z,98617.25
2022-08-05T02:59:47.873Z,98618.53
2022-08-05T03:02:19.491Z,98611.53
2022-08-05T03:04:47.564Z,98610.06
2022-08-05T03:07:40.593Z,98621.47
2022-08-05T03:10:07.473Z,98615.34
2022-08-05T03:12:37.867Z,98607.72
2022-08-05T03:15:06.745Z,98603.44
2022-08-05T03:17:34.524Z,98608.13
2022-08-05T03:20:09.003Z,98611.06
2022-08-05T03:22:37.191Z,98621.22
2022-08-05T03:25:11.773Z,98615.28
2022-08-05T03:27:59.819Z,98617.38
2022-08-05T03:30:28.697Z,98611.41
2022-08-05T03:33:04.304Z,98609.28
2022-08-05T03:35:40.995Z,98616.66
2022-08-05T03:38:10.685Z,98611.13
2022-08-05T03:40:40.143Z,98609.22
2022-08-05T03:43:59.181Z,98603.94
2022-08-05T03:45:58.192Z,98603.06
2022-08-05T03:48:26.750Z,98599.69
2022-08-05T03:50:59.165Z,98598.19
2022-08-05T03:55:52.465Z,98601.56
2022-08-05T03:56:42.221Z,98599.41
2022-08-05T03:59:13.944Z,98599.81
2022-08-05T04:01:48.411Z,98594.56
2022-08-05T04:04:21.043Z,98601.72
2022-08-05T04:06:51.372Z,98607.22
2022-08-05T04:09:20.444Z,98599.81
2022-08-05T04:11:53.166Z,98604.03
2022-08-05T04:14:29.950Z,98600.41
2022-08-05T04:16:58.277Z,98605.06
2022-08-05T04:19:25.876Z,98604.63
2022-08-05T04:22:10.285Z,98603.16
2022-08-05T04:24:44.150Z,98601.06
2022-08-05T04:27:13.795Z,98599.94
2022-08-05T04:29:42.334Z,98597.16
2022-08-05T04:32:09.148Z,98597.81
2022-08-05T04:34:37.563Z,98594.00
2022-08-05T04:37:10.219Z,98593.22
2022-08-05T04:39:37.667Z,98586.63
2022-08-05T04:42:06.233Z,98587.31
2022-08-05T04:44:33.527Z,98593.25
2022-08-05T04:47:08.824Z,98589.25
2022-08-05T04:50:02.830Z,98585.28
2022-08-05T04:52:27.427Z,98584.72
2022-08-05T04:54:57.092Z,98590.84
2022-08-05T04:57:29.109Z,98591.88
2022-08-05T04:59:58.500Z,98593.81
2022-08-05T05:02:36.520Z,98585.34
2022-08-05T05:05:26.399Z,98582.81
2022-08-05T05:07:56.212Z,98587.06
2022-08-05T05:10:29.548Z,98582.22
2022-08-05T05:12:56.659Z,98584.34
2022-08-05T05:15:57.319Z,98578.25
2022-08-05T05:18:15.383Z,98592.00
2022-08-05T05:20:55.599Z,98592.91
2022-08-05T05:23:25.502Z,98601.38
2022-08-05T05:25:52.276Z,98595.22
2022-08-05T05:28:19.593Z,98593.56
2022-08-05T05:30:49.802Z,98591.47
2022-08-05T05:33:17.340Z,98599.94
2022-08-05T05:35:45.189Z,98595.47
2022-08-05T05:38:13.172Z,98598.25
2022-08-05T05:40:48.383Z,98607.78
2022-08-05T05:43:54.613Z,98603.38
2022-08-05T05:46:15.793Z,98605.09
2022-08-05T05:48:44.678Z,98605.09
2022-08-05T05:51:17.929Z,98596.81
2022-08-05T05:53:54.641Z,98599.78
2022-08-05T05:56:32.325Z,98598.94
2022-08-05T05:59:05.661Z,98594.47
2022-08-05T06:01:37.552Z,98588.97
2022-08-05T06:04:11.709Z,98589.16
2022-08-05T06:06:43.322Z,98580.88
2022-08-05T06:09:24.645Z,98578.31
2022-08-05T06:12:01.354Z,98576.22
2022-08-05T06:14:29.834Z,98587.22
2022-08-05T06:16:56.869Z,98582.78
2022-08-05T06:19:34.967Z,98582.50
2022-08-05T06:22:06.365Z,98585.88
2022-08-05T06:24:33.830Z,98583.09
2022-08-05T06:27:01.775Z,98590.28
2022-08-05T06:29:48.955Z,98595.53
2022-08-05T06:32:24.851Z,98598.91
2022-08-05T06:34:56.627Z,98592.94
2022-08-05T06:37:56.635Z,98595.22
2022-08-05T06:40:12.032Z,98594.13
2022-08-05T06:42:39.822Z,98595.09
2022-08-05T06:45:08.807Z,98594.00
2022-08-05T06:48:36.926Z,98596.28
2022-08-05T06:50:23.720Z,98591.56
2022-08-05T06:52:58.701Z,98596.59
2022-08-05T06:55:36.165Z,98597.78
2022-08-05T06:58:20.274Z,98587.91
2022-08-05T07:00:50.751Z,98589.09
2022-08-05T07:03:17.822Z,98590.47
2022-08-05T07:05:46.317Z,98591.47
2022-08-05T07:08:13.344Z,98588.84
2022-08-05T07:10:53.124Z,98590.63
2022-08-05T07:13:57.510Z,98598.16
2022-08-05T07:18:00.458Z,98592.69
2022-08-05T07:20:23.167Z,98595.09
2022-08-05T07:22:28.992Z,98592.41
2022-08-05T07:25:23.720Z,98595.00
2022-08-05T07:27:57.195Z,98594.59
2022-08-05T07:30:34.016Z,98599.56
2022-08-05T07:33:08.953Z,98600.91
2022-08-05T07:36:03.869Z,98595.44
2022-08-05T07:38:26.253Z,98593.19
2022-08-05T07:41:17.163Z,98599.59
2022-08-05T07:43:50.106Z,98599.25
2022-08-05T07:46:24.512Z,98594.66
2022-08-05T07:49:02.945Z,98597.09
2022-08-05T07:51:40.201Z,98597.38
2022-08-05T07:54:09.691Z,98592.31
2022-08-05T07:56:38.947Z,98589.44
2022-08-05T07:59:38.189Z,98580.72
2022-08-05T08:02:16.849Z,98577.69
2022-08-05T08:04:47.994Z,98580.97
2022-08-05T08:07:15.777Z,98582.25
2022-08-05T08:09:43.314Z,98577.44
2022-08-05T08:12:27.513Z,98575.38
2022-08-05T08:14:57.230Z,98577.03
2022-08-05T08:17:30.363Z,98587.50
2022-08-05T08:20:22.335Z,98583.25
2022-08-05T08:22:44.452Z,98588.16
2022-08-05T08:25:16.087Z,98587.44
2022-08-05T08:27:45.114Z,98587.38
2022-08-05T08:30:29.903Z,98588.94
2022-08-05T08:33:04.528Z,98578.00
2022-08-05T08:35:41.348Z,98583.97
2022-08-05T08:38:16.271Z,98586.34
2022-08-05T08:40:45.707Z,98594.56
2022-08-05T08:45:16.140Z,98584.72
2022-08-05T08:46:06.183Z,98590.94
2022-08-05T08:48:41.581Z,98585.78
2022-08-05T08:52:03.433Z,98579.31
2022-08-05T08:54:11.150Z,98585.44
2022-08-05T08:56:47.907Z,98579.88
2022-08-05T08:59:19.740Z,98580.50
2022-08-05T09:01:57.575Z,98578.69
2022-08-05T09:04:30.281Z,98577.94
2022-08-05T09:06:58.527Z,98578.25
2022-08-05T09:09:26.073Z,98580.59
2022-08-05T09:12:19.868Z,98570.66
2022-08-05T09:14:56.508Z,98570.41
2022-08-05T09:17:42.860Z,98569.22
2022-08-05T09:20:21.059Z,98564.50
2022-08-05T09:23:07.803Z,98555.38
2022-08-05T09:26:02.659Z,98561.56
2022-08-05T09:28:24.533Z,98555.84
2022-08-05T09:31:18.178Z,98561.53
2022-08-05T09:33:58.609Z,98565.59
2022-08-05T09:36:38.259Z,98561.78
2022-08-05T09:39:18.285Z,98553.78
2022-08-05T09:41:56.402Z,98546.69
2022-08-05T09:44:41.082Z,98557.84
2022-08-05T09:47:10.412Z,98559.31
2022-08-05T09:50:00.656Z,98553.56
2022-08-05T09:52:30.278Z,98553.38
2022-08-05T09:55:57.697Z,98553.69
2022-08-05T09:57:59.857Z,98551.56
2022-08-05T10:00:27.743Z,98548.84
2022-08-05T10:02:58.333Z,98541.06
2022-08-05T10:05:26.660Z,98544.25
2022-08-05T10:08:35.080Z,98537.88
2022-08-05T10:10:44.256Z,98534.25
2022-08-05T10:13:12.003Z,98543.25
2022-08-05T10:15:41.524Z,98544.13
2022-08-05T10:18:22.891Z,98540.31
2022-08-05T10:20:50.795Z,98532.22
2022-08-05T10:23:34.602Z,98540.06
2022-08-05T10:26:07.048Z,98537.56
2022-08-05T10:28:33.996Z,98529.53
2022-08-05T10:32:49.069Z,98530.38
2022-08-05T10:33:54.096Z,98525.06
2022-08-05T10:36:23.426Z,98530.66
2022-08-05T10:38:55.449Z,98532.88
2022-08-05T10:41:45.293Z,98524.22
2022-08-05T10:44:16.354Z,98527.59
2022-08-05T10:46:44.670Z,98521.13
2022-08-05T10:49:16.939Z,98519.16
2022-08-05T10:51:53.061Z,98523.91
2022-08-05T10:54:56.704Z,98525.56
2022-08-05T10:57:32.312Z,98525.53
2022-08-05T11:00:18.137Z,98525.81
2022-08-05T11:03:25.599Z,98525.00
2022-08-05T11:06:05.325Z,98523.31
2022-08-05T11:08:37.035Z,98518.84
2022-08-05T11:11:23.111Z,98524.41
2022-08-05T11:14:00.137Z,98518.25
2022-08-05T11:16:47.779Z,98519.88
2022-08-05T11:20:10.894Z,98519.28
2022-08-05T11:22:36.258Z,98518.72
2022-08-05T11:26:04.180Z,98516.16
2022-08-05T11:28:11.667Z,98515.59
2022-08-05T11:30:58.456Z,98523.16
2022-08-05T11:33:43.858Z,98521.47
2022-08-05T11:36:40.454Z,98519.41
2022-08-05T11:39:09.679Z,98518.56
2022-08-05T11:41:57.957Z,98514.00
2022-08-05T11:44:52.946Z,98526.00
2022-08-05T11:47:15.252Z,98520.94
2022-08-05T11:49:58.333Z,98520.63
2022-08-05T11:52:29.249Z,98517.00
2022-08-05T11:54:56.884Z,98521.16
2022-08-05T11:57:28.026Z,98521.72
2022-08-05T11:59:57.911Z,98517.22
2022-08-05T12:02:30.583Z,98516.88
2022-08-05T12:05:00.315Z,98511.75
2022-08-05T12:08:02.669Z,98507.78
2022-08-05T12:10:14.523Z,98511.31
2022-08-05T12:12:58.344Z,98509.38
2022-08-05T12:15:35.963Z,98507.97
2022-08-05T12:18:10.675Z,98510.63
2022-08-05T12:20:39.422Z,98499.03
2022-08-05T12:23:08.108Z,98495.88
2022-08-05T12:25:48.880Z,98494.81
2022-08-05T12:28:30.917Z,98494.47
2022-08-05T12:31:02.095Z,98489.31
2022-08-05T12:33:36.485Z,98486.44
2022-08-05T12:36:07.858Z,98480.97
2022-08-05T12:38:40.097Z,98475.00
2022-08-05T12:41:12.912Z,98476.69
2022-08-05T12:43:50.876Z,98480.31
2022-08-05T12:46:28.822Z,98475.72
2022-08-05T12:49:01.101Z,98480.19
2022-08-05T12:52:12.789Z,98483.78
2022-08-05T12:54:29.415Z,98484.91
2022-08-05T12:56:57.813Z,98479.00
2022-08-05T13:00:08.879Z,98474.53
2022-08-05T13:02:21.794Z,98469.16
2022-08-05T13:04:54.998Z,98465.69
2022-08-05T13:07:54.772Z,98467.34
2022-08-05T13:10:14.589Z,98470.09
2022-08-05T13:12:57.379Z,98469.72
2022-08-05T13:15:42.185Z,98468.81
2022-08-05T13:18:20.623Z,98461.06
2022-08-05T13:20:49.405Z,98467.91
2022-08-05T13:23:18.263Z,98464.00
2022-08-05T13:25:52.664Z,98461.97
2022-08-05T13:28:25.962Z,98450.66
2022-08-05T13:30:53.318Z,98460.75
2022-08-05T13:34:23.243Z,98456.56
2022-08-05T13:36:10.531Z,98459.84
2022-08-05T13:38:38.526Z,98466.63
2022-08-05T13:41:10.863Z,98462.34
2022-08-05T13:43:44.189Z,98463.81
2022-08-05T13:46:12.971Z,98458.94
2022-08-05T13:48:58.177Z,98457.47
2022-08-05T13:51:28.750Z,98454.94
2022-08-05T13:53:57.948Z,98457.97
2022-08-05T13:56:25.046Z,98464.72
2022-08-05T13:58:53.231Z,98454.28
2022-08-05T14:01:25.832Z,98451.31
2022-08-05T14:04:21.799Z,98445.88
2022-08-05T14:07:12.038Z,98443.34
2022-08-05T14:09:46.063Z,98442.44
2022-08-05T14:12:17.647Z,98437.97
2022-08-05T14:14:58.773Z,98426.72
2022-08-05T14:17:26.577Z,98434.84
2022-08-05T14:19:59.653Z,98436.00
2022-08-05T14:22:30.373Z,98433.69
2022-08-05T14:25:01.503Z,98428.69
2022-08-05T14:27:28.485Z,98423.16
2022-08-05T14:29:55.580Z,98422.84
2022-08-05T14:32:26.970Z,98419.94
2022-08-05T14:34:56.895Z,98428.78
2022-08-05T14:37:47.352Z,98428.25
2022-08-05T14:40:14.239Z,98420.03
2022-08-05T14:42:44.240Z,98425.03
2022-08-05T14:45:11.417Z,98425.56
2022-08-05T14:48:03.916Z,98417.44
2022-08-05T14:50:25.430Z,98416.31
2022-08-05T14:52:56.733Z,98422.22
2022-08-05T14:55:39.242Z,98415.22
2022-08-05T14:58:11.169Z,98423.06
2022-08-05T15:00:39.582Z,98414.84
2022-08-05T15:03:26.483Z,98412.03
2022-08-05T15:06:07.608Z,98406.41
2022-08-05T15:08:59.315Z,98409.22
2022-08-05T15:11:51.507Z,98415.19
2022-08-05T15:14:33.605Z,98409.00
2022-08-05T15:17:01.913Z,98404.31
2022-08-05T15:19:31.313Z,98409.44
2022-08-05T15:22:00.171Z,98400.06
2022-08-05T15:24:27.595Z,98402.00
2022-08-05T15:26:56.055Z,98404.28
2022-08-05T15:29:29.877Z,98399.53
2022-08-05T15:32:03.142Z,98399.84
2022-08-05T15:34:32.820Z,98396.47
2022-08-05T15:37:06.100Z,98397.09
2022-08-05T15:41:04.305Z,98391.22
2022-08-05T15:42:54.260Z,98398.31
2022-08-05T15:45:07.582Z,98393.00
2022-08-05T15:47:37.254Z,98396.41
2022-08-05T15:50:06.059Z,98392.84
2022-08-05T15:52:53.014Z,98388.88
2022-08-05T15:55:24.634Z,98385.78
2022-08-05T15:58:08.275Z,98389.19
2022-08-05T16:01:04.064Z,98387.53
2022-08-05T16:03:22.057Z,98389.81
2022-08-05T16:05:52.825Z,98388.41
2022-08-05T16:08:22.729Z,98379.44
2022-08-05T16:10:50.997Z,98382.56
2022-08-05T16:13:23.670Z,98377.25
2022-08-05T16:15:59.125Z,98384.28
2022-08-05T16:18:29.010Z,98383.78
2022-08-05T16:20:56.037Z,98388.03
2022-08-05T16:23:23.049Z,98387.47
2022-08-05T16:25:53.276Z,98388.63
2022-08-05T16:28:24.281Z,98377.19
2022-08-05T16:30:52.994Z,98376.94
2022-08-05T16:33:20.564Z,98387.09
2022-08-05T16:35:52.744Z,98379.28
2022-08-05T16:38:25.294Z,98379.06
2022-08-05T16:41:00.460Z,98384.16
2022-08-05T16:43:29.278Z,98372.69
2022-08-05T16:46:06.167Z,98369.66
2022-08-05T16:48:35.996Z,98376.94
2022-08-05T16:51:09.451Z,98375.59
2022-08-05T16:54:06.202Z,98364.44
2022-08-05T16:56:25.878Z,98364.47
2022-08-05T16:58:52.897Z,98365.09
2022-08-05T17:01:20.288Z,98362.66
2022-08-05T17:03:47.614Z,98359.63
2022-08-05T17:06:16.559Z,98364.66
2022-08-05T17:08:52.238Z,98362.47
2022-08-05T17:11:23.884Z,98358.59
2022-08-05T17:14:00.504Z,98361.69
2022-08-05T17:16:37.227Z,98367.06
2022-08-05T17:19:07.697Z,98368.78
2022-08-05T17:21:37.338Z,98368.53
2022-08-05T17:24:20.510Z,98372.25
2022-08-05T17:26:52.762Z,98371.97
2022-08-05T17:29:22.578Z,98381.00
2022-08-05T17:32:00.026Z,98373.19
2022-08-05T17:34:29.910Z,98382.53
2022-08-05T17:37:02.283Z,98376.16
2022-08-05T17:39:34.109Z,98382.06
2022-08-05T17:42:17.558Z,98382.63
2022-08-05T17:44:50.335Z,98393.63
2022-08-05T17:47:21.965Z,98390.53
2022-08-05T17:50:03.870Z,98387.47
2022-08-05T17:52:32.055Z,98394.78
2022-08-05T17:54:59.286Z,98394.03
2022-08-05T17:57:26.152Z,98392.91
2022-08-05T18:00:03.403Z,98397.44
2022-08-05T18:02:32.430Z,98390.75
2022-08-05T18:05:02.858Z,98391.91
2022-08-05T18:07:41.370Z,98394.44
2022-08-05T18:10:10.529Z,98390.03
2022-08-05T18:12:38.069Z,98393.72
2022-08-05T18:15:05.184Z,98402.13
2022-08-05T18:18:00.796Z,98402.97
2022-08-05T18:20:29.167Z,98403.59
2022-08-05T18:23:00.421Z,98396.63
2022-08-05T18:25:35.938Z,98399.47
2022-08-05T18:28:05.127Z,98401.44
2022-08-05T18:30:33.238Z,98402.28
2022-08-05T18:33:00.999Z,98403.19
2022-08-05T18:36:00.696Z,98401.53
2022-08-05T18:38:16.421Z,98401.25
2022-08-05T18:41:57.291Z,98395.41
2022-08-05T18:43:38.137Z,98404.94
2022-08-05T18:46:09.548Z,98394.34
2022-08-05T18:48:41.654Z,98398.25
2022-08-05T18:52:02.907Z,98398.56
2022-08-05T18:54:14.505Z,98396.34
2022-08-05T18:56:41.924Z,98395.50
2022-08-05T18:59:42.840Z,98396.91
2022-08-05T19:02:11.201Z,98395.56
2022-08-05T19:05:01.227Z,98400.63
2022-08-05T19:07:45.223Z,98406.22
2022-08-05T19:10:12.728Z,98410.13
2022-08-05T19:12:40.464Z,98420.19
2022-08-05T19:15:10.610Z,98425.50
2022-08-05T19:17:59.330Z,98423.00
2022-08-05T19:20:36.843Z,98420.72
2022-08-05T19:23:07.680Z,98420.47
2022-08-05T19:25:42.015Z,98418.81
2022-08-05T19:28:10.678Z,98421.88
2022-08-05T19:30:37.522Z,98419.34
2022-08-05T19:33:05.170Z,98419.63
2022-08-05T19:35:55.976Z,98420.72
2022-08-05T19:38:26.723Z,98415.38
2022-08-05T19:40:53.849Z,98415.66
2022-08-05T19:43:31.204Z,98421.50
2022-08-05T19:46:28.923Z,98424.84
2022-08-05T19:48:54.344Z,98427.88
2022-08-05T19:51:59.833Z,98425.91
2022-08-05T19:54:15.709Z,98435.94
2022-08-05T19:56:55.685Z,98438.13
2022-08-05T19:59:55.526Z,98432.50
2022-08-05T20:02:09.585Z,98433.31
2022-08-05T20:04:37.803Z,98431.06
2022-08-05T20:07:13.309Z,98430.19
2022-08-05T20:09:54.849Z,98430.44
2022-08-05T20:12:24.443Z,98432.38
2022-08-05T20:14:52.406Z,98426.47
2022-08-05T20:17:23.305Z,98430.06
2022-08-05T20:19:56.755Z,98436.69
2022-08-05T20:22:26.800Z,98428.81
2022-08-05T20:24:55.359Z,98425.47
2022-08-05T20:27:26.628Z,98432.16
2022-08-05T20:29:57.970Z,98437.09
2022-08-05T20:32:26.125Z,98427.03
2022-08-05T20:34:53.056Z,98428.38
2022-08-05T20:38:04.636Z,98433.06
2022-08-05T20:40:07.258Z,98438.84
2022-08-05T20:42:34.778Z,98439.63
2022-08-05T20:45:02.514Z,98440.69
2022-08-05T20:47:31.832Z,98438.63
2022-08-05T20:49:59.166Z,98437.81
2022-08-05T20:52:26.192Z,98435.75
2022-08-05T20:55:55.201Z,98439.66
2022-08-05T20:57:43.023Z,98430.41
2022-08-05T21:00:41.479Z,98427.53
2022-08-05T21:03:06.277Z,98436.41
2022-08-05T21:05:38.335Z,98445.50
2022-08-05T21:08:19.993Z,98447.91
2022-08-05T21:10:48.926Z,98456.22
2022-08-05T21:13:26.547Z,98448.38
2022-08-05T21:16:03.588Z,98454.41
2022-08-05T21:18:30.595Z,98455.78
2022-08-05T21:20:57.597Z,98453.19
2022-08-05T21:23:25.046Z,98456.75
2022-08-05T21:25:51.786Z,98462.50
2022-08-05T21:28:23.942Z,98468.84
2022-08-05T21:30:57.689Z,98463.19
2022-08-05T21:33:24.397Z,98463.63
2022-08-05T21:36:04.395Z,98460.53
2022-08-05T21:38:31.109Z,98454.66
2022-08-05T21:40:57.958Z,98462.41
2022-08-05T21:43:25.170Z,98458.72
2022-08-05T21:45:57.490Z,98452.22
2022-08-05T21:48:27.720Z,98454.69
2022-08-05T21:50:55.302Z,98459.59
2022-08-05T21:53:27.053Z,98459.28
2022-08-05T21:56:04.781Z,98458.09
2022-08-05T21:58:33.228Z,98468.25
2022-08-05T22:01:00.503Z,98458.72
2022-08-05T22:03:52.067Z,98465.66
2022-08-05T22:06:15.169Z,98457.50
2022-08-05T22:08:42.345Z,98457.41
2022-08-05T22:11:11.918Z,98462.63
2022-08-05T22:14:32.518Z,98465.06
2022-08-05T22:16:41.873Z,98470.53
2022-08-05T22:20:02.180Z,98463.47
2022-08-05T22:22:03.343Z,98468.94
2022-08-05T22:24:51.856Z,98463.06
2022-08-05T22:28:05.049Z,98463.56
2022-08-05T22:30:24.995Z,98472.00
2022-08-05T22:32:59.530Z,98465.88
2022-08-05T22:35:26.485Z,98469.66
2022-08-05T22:38:05.651Z,98487.03
2022-08-05T22:40:36.838Z,98495.88
2022-08-05T22:43:04.994Z,98501.56
2022-08-05T22:45:31.702Z,98508.47
2022-08-05T22:47:59.733Z,98506.69
2022-08-05T22:50:27.698Z,98511.06
2022-08-05T22:52:54.762Z,98505.41
2022-08-05T22:55:22.117Z,98500.59
2022-08-05T22:57:52.007Z,98496.59
2022-08-05T23:00:21.097Z,98500.94
2022-08-05T23:02:48.879Z,98497.81
2022-08-05T23:05:15.905Z,98508.56
2022-08-05T23:07:48.481Z,98508.19
2022-08-05T23:10:20.241Z,98506.19
2022-08-05T23:12:51.203Z,98508.59
2022-08-05T23:15:18.871Z,98509.34
2022-08-05T23:18:01.105Z,98515.59
2022-08-05T23:20:30.134Z,98513.31
2022-08-05T23:22:58.807Z,98513.81
2022-08-05T23:25:53.302Z,98511.78
2022-08-05T23:28:12.814Z,98523.34
2022-08-05T23:30:43.435Z,98523.00
2022-08-05T23:33:16.369Z,98533.72
2022-08-05T23:35:50.255Z,98521.44
2022-08-05T23:38:17.134Z,98526.38
2022-08-05T23:40:50.017Z,98527.06
2022-08-05T23:43:25.519Z,98527.78
2022-08-05T23:46:04.966Z,98528.50
2022-08-05T23:48:59.989Z,98534.53
2022-08-05T23:51:54.136Z,98540.56
2022-08-05T23:54:30.304Z,98540.22
2022-08-05T23:57:04.623Z,98538.16
